LFRG/DOL METAR and TAF weather

Enter ICAO airport designator
Station Type Date Time Source
LFRG METAR 2024/02/26 16:30 UTC NOAA

LFRG 261630Z AUTO 02020G32KT 9999 -RA OVC015 06/04 Q1006 TEMPO 03030G45KT 4000 -RA BKN012


Station Type Date Time Source
LFRG Decoded METAR 2024/02/26 16:30 UTC NOAA

Station name not available
Feb 26, 2024 - 11:30 AM EST / 2024.02.26 1630 UTC
Wind: from the NNE (020 degrees) at 23 MPH (20 KT) gusting to 37 MPH (32 KT):0
Visibility: greater than 7 mile(s):0
Sky conditions: overcast
Weather: light rain
Temperature: 42 F (6 C)
Dew Point: 39 F (4 C)
Relative Humidity: 86%
Pressure (altimeter): 29.71 in. Hg (1006 hPa)
ob: LFRG 261630Z AUTO 02020G32KT 9999 -RA OVC015 06/04 Q1006 TEMPO 03030G45KT 4000 -RA BKN012
cycle: 16

Station Type Date Time Source
LFRG TAF 2014/12/22 18:42 UTC NOAA